»·PEaware :: N612SB KSNA-KSNA

N612SB :: KSNA-KSNA

FLIGHT INFORMATION

Flight Status: Arrived
Operator: Privately registered:
United States
More flights under this callsign
Pilot: Clay B. (17061)
Aircraft: BOEING 737-900
(B739)
More flights by this aircraft type
Origin: KSNA John Wayne-Orange Co
United States
Destination: KSNA John Wayne-Orange Co
United States
More flights between these airports :: More routes between these airports
Route: +
File this flight plan on PilotEdge
Remarks:
Altitude:
(Current/Filed)
5,000ft
Speed:
(Current/Filed)
0kts
Departed: 06-Dec-18 06:38 PM
Arrived: 06-Dec-18 07:15 PM
Distance/Time
Traveled:
0nm/0:36
Distance/Time
To Go:
Arrived

Flight Plot

Page will automatically refresh every two minutes.


Map Options




Map Legend


Flown Route
Filed Route
Departure Airport
Arrival Airport
Navaid (VOR, NDB)
Fix

Horizontal Profiles

Position Reports

Time Latitude Longitude Heading Altitude Ground
Speed
06-Dec-18 18:22 33.680047 -117.861929 106 64ft 0kts
06-Dec-18 18:24 33.680047 -117.861929 106 64ft 0kts
06-Dec-18 18:25 33.680047 -117.861929 106 64ft 0kts
06-Dec-18 18:26 33.680047 -117.861929 106 64ft 0kts
06-Dec-18 18:27 33.680047 -117.861929 106 64ft 0kts
06-Dec-18 18:28 33.680047 -117.861929 106 64ft 0kts
06-Dec-18 18:29 33.680047 -117.861929 106 64ft 0kts
06-Dec-18 18:30 33.680047 -117.861929 106 64ft 0kts
06-Dec-18 18:31 33.680074 -117.862036 106 64ft 2kts
06-Dec-18 18:32 33.680128 -117.862658 47 64ft 2kts
06-Dec-18 18:33 33.680016 -117.862751 27 64ft 0kts
06-Dec-18 18:34 33.680016 -117.862751 27 64ft 0kts
06-Dec-18 18:35 33.680311 -117.862656 347 64ft 6kts
06-Dec-18 18:36 33.680760 -117.863317 299 64ft 9kts
06-Dec-18 18:37 33.680674 -117.865676 207 64ft 33kts
06-Dec-18 18:38 33.644022 -117.886440 189 1664ft 207kts
06-Dec-18 18:39 33.579184 -117.898306 188 4939ft 254kts
06-Dec-18 18:40 33.522858 -117.947205 244 4998ft 253kts
06-Dec-18 18:41 33.542875 -118.018109 337 5003ft 242kts
06-Dec-18 18:42 33.608552 -118.020000 18 4996ft 238kts
06-Dec-18 18:43 33.670587 -117.991820 21 4998ft 240kts
06-Dec-18 18:44 33.732432 -117.963018 21 4999ft 243kts
06-Dec-18 18:45 33.794252 -117.934046 21 5003ft 241kts
06-Dec-18 18:46 33.855720 -117.905348 21 5016ft 241kts
06-Dec-18 18:47 33.898993 -117.852357 51 4988ft 235kts
06-Dec-18 18:47 33.930745 -117.803077 52 5005ft 217kts
06-Dec-18 18:48 33.952478 -117.739015 108 4790ft 222kts
06-Dec-18 18:49 33.898927 -117.716044 207 3762ft 247kts
06-Dec-18 18:50 33.842296 -117.761797 209 2990ft 236kts
06-Dec-18 18:51 33.786638 -117.798357 207 2432ft 236kts
06-Dec-18 18:52 33.731005 -117.833685 207 1219ft 210kts
06-Dec-18 18:53 33.688452 -117.860770 204 237ft 149kts
06-Dec-18 18:54 33.651501 -117.885083 207 1347ft 206kts
06-Dec-18 18:55 33.591901 -117.923220 207 2677ft 272kts
06-Dec-18 18:56 33.545108 -117.983717 259 3990ft 254kts
06-Dec-18 18:57 33.537696 -118.068506 289 4004ft 256kts
06-Dec-18 18:58 33.592873 -118.103433 20 4005ft 246kts
06-Dec-18 18:59 33.651894 -118.062669 32 3998ft 245kts
06-Dec-18 19:00 33.708262 -118.018025 41 3999ft 246kts
06-Dec-18 19:01 33.758628 -117.964258 41 4003ft 249kts
06-Dec-18 19:02 33.808758 -117.910394 41 4001ft 246kts
06-Dec-18 19:03 33.858844 -117.856517 41 3995ft 248kts
06-Dec-18 19:04 33.908797 -117.802854 41 4026ft 247kts
06-Dec-18 19:05 33.959743 -117.748175 41 4022ft 247kts
06-Dec-18 19:06 34.003456 -117.693933 70 4024ft 226kts
06-Dec-18 19:07 33.976596 -117.639211 169 4035ft 228kts
06-Dec-18 19:08 33.925890 -117.677736 231 4026ft 231kts
06-Dec-18 19:09 33.881804 -117.732411 215 3973ft 232kts
06-Dec-18 19:10 33.826278 -117.772809 208 3017ft 239kts
06-Dec-18 19:11 33.774883 -117.805852 207 2150ft 205kts
06-Dec-18 19:12 33.729061 -117.834967 207 1142ft 175kts
06-Dec-18 19:13 33.691356 -117.858916 207 344ft 145kts
06-Dec-18 19:14 33.670872 -117.871942 207 64ft 27kts
06-Dec-18 19:15 33.669814 -117.870190 40 64ft 15kts
06-Dec-18 19:16 33.673592 -117.866811 32 64ft 16kts
06-Dec-18 19:17 33.675376 -117.864896 116 64ft 0kts
06-Dec-18 19:18 33.675376 -117.864896 116 64ft 0kts

Navigation Log

Ident Type
Flight plan parsing failed, navigation log unavailable